sensor_id;sensor_type;location;lat;lon;timestamp;pressure;altitude;pressure_sealevel;temperature;humidity
66857;BME280;53766;50.280;19.160;2023-04-05T00:00:45;98966.56;;;16.31;43.18
66857;BME280;53766;50.280;19.160;2023-04-05T00:03:14;98968.38;;;16.31;43.16
66857;BME280;53766;50.280;19.160;2023-04-05T00:05:44;98963.91;;;16.31;43.06
66857;BME280;53766;50.280;19.160;2023-04-05T00:08:12;98965.56;;;16.32;43.06
66857;BME280;53766;50.280;19.160;2023-04-05T00:10:49;98963.91;;;16.31;43.15
66857;BME280;53766;50.280;19.160;2023-04-05T00:13:17;98956.13;;;16.30;42.97
66857;BME280;53766;50.280;19.160;2023-04-05T00:15:44;98959.75;;;16.29;43.10
66857;BME280;53766;50.280;19.160;2023-04-05T00:18:12;98963.28;;;16.29;42.95
66857;BME280;53766;50.280;19.160;2023-04-05T00:20:50;98949.97;;;16.29;43.11
66857;BME280;53766;50.280;19.160;2023-04-05T00:23:18;98949.97;;;16.29;43.06
66857;BME280;53766;50.280;19.160;2023-04-05T00:25:47;98943.00;;;16.28;42.95
66857;BME280;53766;50.280;19.160;2023-04-05T00:28:15;98945.66;;;16.28;42.95
66857;BME280;53766;50.280;19.160;2023-04-05T00:30:42;98947.50;;;16.28;43.06
66857;BME280;53766;50.280;19.160;2023-04-05T00:33:11;98942.16;;;16.28;42.92
66857;BME280;53766;50.280;19.160;2023-04-05T00:35:39;98935.22;;;16.27;42.99
66857;BME280;53766;50.280;19.160;2023-04-05T00:38:07;98939.69;;;16.26;42.86
66857;BME280;53766;50.280;19.160;2023-04-05T00:40:35;98939.69;;;16.26;42.89
66857;BME280;53766;50.280;19.160;2023-04-05T00:43:02;98935.38;;;16.25;43.04
66857;BME280;53766;50.280;19.160;2023-04-05T00:45:29;98931.91;;;16.24;42.90
66857;BME280;53766;50.280;19.160;2023-04-05T00:47:58;98927.41;;;16.25;42.97
66857;BME280;53766;50.280;19.160;2023-04-05T00:50:26;98924.09;;;16.23;42.92
66857;BME280;53766;50.280;19.160;2023-04-05T00:52:57;98936.38;;;16.24;42.91
66857;BME280;53766;50.280;19.160;2023-04-05T00:55:26;98925.09;;;16.22;43.05
66857;BME280;53766;50.280;19.160;2023-04-05T00:57:54;98929.41;;;16.23;42.82
66857;BME280;53766;50.280;19.160;2023-04-05T01:00:25;98928.78;;;16.21;43.08
66857;BME280;53766;50.280;19.160;2023-04-05T01:02:59;98930.25;;;16.23;43.07
66857;BME280;53766;50.280;19.160;2023-04-05T01:05:46;98933.06;;;16.22;42.92
66857;BME280;53766;50.280;19.160;2023-04-05T01:08:39;98926.13;;;16.21;42.81
66857;BME280;53766;50.280;19.160;2023-04-05T01:11:11;98932.25;;;16.21;43.03
66857;BME280;53766;50.280;19.160;2023-04-05T01:13:39;98934.09;;;16.21;43.00
66857;BME280;53766;50.280;19.160;2023-04-05T01:16:07;98931.44;;;16.21;42.84
66857;BME280;53766;50.280;19.160;2023-04-05T01:18:34;98921.78;;;16.20;42.87
66857;BME280;53766;50.280;19.160;2023-04-05T01:24:14;98921.16;;;16.18;43.00
66857;BME280;53766;50.280;19.160;2023-04-05T01:27:03;98915.00;;;16.17;43.03
66857;BME280;53766;50.280;19.160;2023-04-05T01:30:22;98907.22;;;16.16;42.84
66857;BME280;53766;50.280;19.160;2023-04-05T01:32:49;98914.19;;;16.17;42.83
66857;BME280;53766;50.280;19.160;2023-04-05T01:35:35;98914.34;;;16.15;43.04
66857;BME280;53766;50.280;19.160;2023-04-05T01:38:06;98910.88;;;16.15;42.89
66857;BME280;53766;50.280;19.160;2023-04-05T01:40:36;98912.53;;;16.16;42.77
66857;BME280;53766;50.280;19.160;2023-04-05T01:43:14;98924.81;;;16.17;42.75
66857;BME280;53766;50.280;19.160;2023-04-05T01:45:44;98921.16;;;16.18;42.63
66857;BME280;53766;50.280;19.160;2023-04-05T01:48:13;98916.84;;;16.17;42.74
66857;BME280;53766;50.280;19.160;2023-04-05T01:50:41;98913.53;;;16.15;42.74
66857;BME280;53766;50.280;19.160;2023-04-05T01:53:09;98913.53;;;16.15;42.96
66857;BME280;53766;50.280;19.160;2023-04-05T01:55:36;98910.88;;;16.15;42.84
66857;BME280;53766;50.280;19.160;2023-04-05T01:58:03;98903.91;;;16.14;42.85
66857;BME280;53766;50.280;19.160;2023-04-05T02:00:31;98894.13;;;16.14;42.91
66857;BME280;53766;50.280;19.160;2023-04-05T02:02:59;98891.63;;;16.13;42.72
66857;BME280;53766;50.280;19.160;2023-04-05T02:05:26;98894.28;;;16.13;42.84
66857;BME280;53766;50.280;19.160;2023-04-05T02:07:54;98891.63;;;16.13;42.87
66857;BME280;53766;50.280;19.160;2023-04-05T02:10:22;98893.47;;;16.12;42.83
66857;BME280;53766;50.280;19.160;2023-04-05T02:12:49;98891.63;;;16.13;42.73
66857;BME280;53766;50.280;19.160;2023-04-05T02:15:17;98898.78;;;16.12;42.75
66857;BME280;53766;50.280;19.160;2023-04-05T02:17:45;98890.81;;;16.12;42.68
66857;BME280;53766;50.280;19.160;2023-04-05T02:20:13;98891.63;;;16.13;42.85
66857;BME280;53766;50.280;19.160;2023-04-05T02:22:41;98896.13;;;16.12;42.62
66857;BME280;53766;50.280;19.160;2023-04-05T02:25:12;98888.31;;;16.11;42.83
66857;BME280;53766;50.280;19.160;2023-04-05T02:27:40;98886.69;;;16.10;42.69
66857;BME280;53766;50.280;19.160;2023-04-05T02:30:08;98881.38;;;16.10;42.55
66857;BME280;53766;50.280;19.160;2023-04-05T02:32:36;98876.88;;;16.10;42.59
66857;BME280;53766;50.280;19.160;2023-04-05T02:35:04;98882.34;;;16.09;42.66
66857;BME280;53766;50.280;19.160;2023-04-05T02:37:31;98874.38;;;16.09;42.61
66857;BME280;53766;50.280;19.160;2023-04-05T02:39:59;98871.72;;;16.09;42.64
66857;BME280;53766;50.280;19.160;2023-04-05T02:42:26;98863.75;;;16.09;42.86
66857;BME280;53766;50.280;19.160;2023-04-05T02:44:54;98872.75;;;16.08;42.60
66857;BME280;53766;50.280;19.160;2023-04-05T02:47:21;98873.56;;;16.08;42.48
66857;BME280;53766;50.280;19.160;2023-04-05T02:49:49;98863.75;;;16.09;42.58
66857;BME280;53766;50.280;19.160;2023-04-05T02:52:16;98861.09;;;16.09;42.47
66857;BME280;53766;50.280;19.160;2023-04-05T02:54:44;98862.94;;;16.08;42.55
66857;BME280;53766;50.280;19.160;2023-04-05T02:57:12;98869.91;;;16.09;42.56
66857;BME280;53766;50.280;19.160;2023-04-05T02:59:40;98872.75;;;16.08;42.53
66857;BME280;53766;50.280;19.160;2023-04-05T03:02:09;98869.25;;;16.07;42.81
66857;BME280;53766;50.280;19.160;2023-04-05T03:04:37;98871.91;;;16.07;42.48
66857;BME280;53766;50.280;19.160;2023-04-05T03:07:04;98867.44;;;16.08;42.64
66857;BME280;53766;50.280;19.160;2023-04-05T03:09:32;98865.75;;;16.07;42.58
66857;BME280;53766;50.280;19.160;2023-04-05T03:12:00;98860.44;;;16.07;42.67
66857;BME280;53766;50.280;19.160;2023-04-05T03:14:32;98864.13;;;16.06;42.70
66857;BME280;53766;50.280;19.160;2023-04-05T03:17:00;98864.13;;;16.06;42.44
66857;BME280;53766;50.280;19.160;2023-04-05T03:19:28;98859.78;;;16.04;42.38
66857;BME280;53766;50.280;19.160;2023-04-05T03:21:56;98858.81;;;16.06;42.36
66857;BME280;53766;50.280;19.160;2023-04-05T03:24:24;98855.50;;;16.03;42.52
66857;BME280;53766;50.280;19.160;2023-04-05T03:26:51;98860.81;;;16.03;42.49
66857;BME280;53766;50.280;19.160;2023-04-05T03:29:19;98867.75;;;16.04;42.64
66857;BME280;53766;50.280;19.160;2023-04-05T03:31:48;98866.13;;;16.03;42.53
66857;BME280;53766;50.280;19.160;2023-04-05T03:34:16;98866.94;;;16.04;42.43
66857;BME280;53766;50.280;19.160;2023-04-05T03:36:43;98866.94;;;16.04;42.49
66857;BME280;53766;50.280;19.160;2023-04-05T03:39:12;98863.47;;;16.03;42.58
66857;BME280;53766;50.280;19.160;2023-04-05T03:41:40;98863.63;;;16.02;42.40
66857;BME280;53766;50.280;19.160;2023-04-05T03:44:08;98862.66;;;16.03;42.48
66857;BME280;53766;50.280;19.160;2023-04-05T03:46:35;98863.63;;;16.02;42.45
66857;BME280;53766;50.280;19.160;2023-04-05T03:49:04;98862.81;;;16.01;42.60
66857;BME280;53766;50.280;19.160;2023-04-05T03:51:33;98868.13;;;16.01;42.45
66857;BME280;53766;50.280;19.160;2023-04-05T03:54:00;98862.81;;;16.01;42.47
66857;BME280;53766;50.280;19.160;2023-04-05T03:56:28;98863.84;;;16.00;42.51
66857;BME280;53766;50.280;19.160;2023-04-05T03:58:55;98862.81;;;16.01;42.37
66857;BME280;53766;50.280;19.160;2023-04-05T04:01:23;98866.50;;;16.00;42.28
66857;BME280;53766;50.280;19.160;2023-04-05T04:03:50;98863.19;;;15.98;42.52
66857;BME280;53766;50.280;19.160;2023-04-05T04:06:18;98868.50;;;15.98;42.28
66857;BME280;53766;50.280;19.160;2023-04-05T04:08:46;98856.03;;;15.99;42.48
66857;BME280;53766;50.280;19.160;2023-04-05T04:11:13;98852.56;;;15.98;42.46
66857;BME280;53766;50.280;19.160;2023-04-05T04:13:41;98854.56;;;15.96;42.48
66857;BME280;53766;50.280;19.160;2023-04-05T04:16:08;98851.72;;;15.98;42.15
66857;BME280;53766;50.280;19.160;2023-04-05T04:18:35;98850.91;;;15.97;42.37
66857;BME280;53766;50.280;19.160;2023-04-05T04:21:03;98859.69;;;15.98;42.12
66857;BME280;53766;50.280;19.160;2023-04-05T04:23:33;98872.16;;;15.97;42.35
66857;BME280;53766;50.280;19.160;2023-04-05T04:26:01;98868.84;;;15.95;42.34
66857;BME280;53766;50.280;19.160;2023-04-05T04:28:29;98871.50;;;15.95;42.39
66857;BME280;53766;50.280;19.160;2023-04-05T04:31:00;98869.66;;;15.96;42.22
66857;BME280;53766;50.280;19.160;2023-04-05T04:33:35;98871.31;;;15.97;42.24
66857;BME280;53766;50.280;19.160;2023-04-05T04:36:07;98868.03;;;15.95;42.47
66857;BME280;53766;50.280;19.160;2023-04-05T04:38:35;98870.50;;;15.96;42.24
66857;BME280;53766;50.280;19.160;2023-04-05T04:41:07;98857.38;;;15.95;42.15
66857;BME280;53766;50.280;19.160;2023-04-05T04:43:35;98851.91;;;15.96;42.40
66857;BME280;53766;50.280;19.160;2023-04-05T04:46:08;98862.72;;;15.95;42.33
66857;BME280;53766;50.280;19.160;2023-04-05T04:48:41;98860.22;;;15.93;42.35
66857;BME280;53766;50.280;19.160;2023-04-05T04:51:09;98860.22;;;15.93;42.21
66857;BME280;53766;50.280;19.160;2023-04-05T04:53:37;98866.00;;;15.97;41.88
66857;BME280;53766;50.280;19.160;2023-04-05T04:56:07;98858.88;;;15.97;42.27
66857;BME280;53766;50.280;19.160;2023-04-05T04:58:35;98866.84;;;15.97;42.43
66857;BME280;53766;50.280;19.160;2023-04-05T05:01:09;98863.53;;;15.95;42.30
66857;BME280;53766;50.280;19.160;2023-04-05T05:03:36;98871.50;;;15.95;42.25
66857;BME280;53766;50.280;19.160;2023-04-05T05:06:07;98871.50;;;15.95;42.28
66857;BME280;53766;50.280;19.160;2023-04-05T05:08:35;98876.00;;;15.95;42.45
66857;BME280;53766;50.280;19.160;2023-04-05T05:11:05;98872.50;;;15.94;42.28
66857;BME280;53766;50.280;19.160;2023-04-05T05:13:33;98873.34;;;15.95;42.57
66857;BME280;53766;50.280;19.160;2023-04-05T05:16:01;98880.47;;;15.94;42.36
66857;BME280;53766;50.280;19.160;2023-04-05T05:18:30;98877.81;;;15.94;42.41
66857;BME280;53766;50.280;19.160;2023-04-05T05:20:57;98876.16;;;15.93;42.59
66857;BME280;53766;50.280;19.160;2023-04-05T05:23:26;98885.97;;;15.93;42.47
66857;BME280;53766;50.280;19.160;2023-04-05T05:25:57;98876.16;;;15.93;42.32
66857;BME280;53766;50.280;19.160;2023-04-05T05:28:26;98881.47;;;15.93;42.51
66857;BME280;53766;50.280;19.160;2023-04-05T05:30:53;98877.81;;;15.94;42.34
66857;BME280;53766;50.280;19.160;2023-04-05T05:33:21;98885.78;;;15.94;42.35
66857;BME280;53766;50.280;19.160;2023-04-05T05:35:49;98880.47;;;15.94;42.58
66857;BME280;53766;50.280;19.160;2023-04-05T05:38:17;98884.94;;;15.94;42.46
66857;BME280;53766;50.280;19.160;2023-04-05T05:40:45;98888.44;;;15.94;42.32
66857;BME280;53766;50.280;19.160;2023-04-05T05:43:12;98883.47;;;15.91;42.25
66857;BME280;53766;50.280;19.160;2023-04-05T05:45:40;98883.31;;;15.93;42.29
66857;BME280;53766;50.280;19.160;2023-04-05T05:48:08;98879.84;;;15.92;42.39
66857;BME280;53766;50.280;19.160;2023-04-05T05:50:35;98876.16;;;15.93;42.22
66857;BME280;53766;50.280;19.160;2023-04-05T05:53:03;98874.53;;;15.92;42.43
66857;BME280;53766;50.280;19.160;2023-04-05T05:55:30;98886.78;;;15.93;42.38
66857;BME280;53766;50.280;19.160;2023-04-05T05:57:58;98872.84;;;15.91;42.33
66857;BME280;53766;50.280;19.160;2023-04-05T06:00:26;98875.50;;;15.91;42.33
66857;BME280;53766;50.280;19.160;2023-04-05T06:02:54;98877.19;;;15.92;42.31
66857;BME280;53766;50.280;19.160;2023-04-05T06:05:21;98885.16;;;15.92;42.38
66857;BME280;53766;50.280;19.160;2023-04-05T06:07:49;98879.84;;;15.92;42.36
66857;BME280;53766;50.280;19.160;2023-04-05T06:10:16;98882.50;;;15.92;42.18
66857;BME280;53766;50.280;19.160;2023-04-05T06:12:44;98885.97;;;15.93;42.21
66857;BME280;53766;50.280;19.160;2023-04-05T06:15:12;98885.16;;;15.92;42.29
66857;BME280;53766;50.280;19.160;2023-04-05T06:17:40;98881.47;;;15.93;42.19
66857;BME280;53766;50.280;19.160;2023-04-05T06:20:09;98885.16;;;15.92;42.08
66857;BME280;53766;50.280;19.160;2023-04-05T06:22:39;98881.47;;;15.93;42.07
66857;BME280;53766;50.280;19.160;2023-04-05T06:25:07;98884.78;;;15.95;42.09
66857;BME280;53766;50.280;19.160;2023-04-05T06:27:35;98879.63;;;15.94;42.24
66857;BME280;53766;50.280;19.160;2023-04-05T06:30:03;98888.44;;;15.94;42.25
66857;BME280;53766;50.280;19.160;2023-04-05T06:32:31;98876.97;;;15.94;42.30
66857;BME280;53766;50.280;19.160;2023-04-05T06:34:59;98887.44;;;15.95;42.14
66857;BME280;53766;50.280;19.160;2023-04-05T06:37:27;98893.75;;;15.94;42.09
66857;BME280;53766;50.280;19.160;2023-04-05T06:39:54;98893.75;;;15.94;41.99
66857;BME280;53766;50.280;19.160;2023-04-05T06:42:22;98884.94;;;15.94;42.10
66857;BME280;53766;50.280;19.160;2023-04-05T06:44:52;98891.09;;;15.94;42.17
66857;BME280;53766;50.280;19.160;2023-04-05T06:47:20;98892.09;;;15.93;42.04
66857;BME280;53766;50.280;19.160;2023-04-05T06:49:47;98889.44;;;15.93;41.88
66857;BME280;53766;50.280;19.160;2023-04-05T06:52:14;98890.91;;;15.96;42.09
66857;BME280;53766;50.280;19.160;2023-04-05T06:54:42;98890.09;;;15.95;41.99
66857;BME280;53766;50.280;19.160;2023-04-05T06:57:11;98888.91;;;15.98;41.83
66857;BME280;53766;50.280;19.160;2023-04-05T06:59:38;98894.22;;;15.98;41.88
66857;BME280;53766;50.280;19.160;2023-04-05T07:02:05;98897.72;;;15.98;41.91
66857;BME280;53766;50.280;19.160;2023-04-05T07:04:33;98893.41;;;15.97;41.77
66857;BME280;53766;50.280;19.160;2023-04-05T07:07:03;98893.41;;;15.97;41.85
66857;BME280;53766;50.280;19.160;2023-04-05T07:09:31;98887.75;;;16.00;41.75
66857;BME280;53766;50.280;19.160;2023-04-05T07:12:01;98892.69;;;16.03;41.69
66857;BME280;53766;50.280;19.160;2023-04-05T07:14:30;98887.38;;;16.03;41.74
66857;BME280;53766;50.280;19.160;2023-04-05T07:16:58;98888.38;;;16.02;41.72
66857;BME280;53766;50.280;19.160;2023-04-05T07:19:25;98886.72;;;16.01;41.59
66857;BME280;53766;50.280;19.160;2023-04-05T07:21:54;98893.06;;;16.00;41.70
66857;BME280;53766;50.280;19.160;2023-04-05T07:24:21;98893.06;;;16.00;41.92
66857;BME280;53766;50.280;19.160;2023-04-05T07:26:49;98894.88;;;16.00;41.75
66857;BME280;53766;50.280;19.160;2023-04-05T07:29:16;98894.06;;;15.99;41.85
66857;BME280;53766;50.280;19.160;2023-04-05T07:31:44;98890.56;;;15.99;41.61
66857;BME280;53766;50.280;19.160;2023-04-05T07:34:12;98891.41;;;15.99;41.81
66857;BME280;53766;50.280;19.160;2023-04-05T07:36:39;98892.03;;;16.01;41.81
66857;BME280;53766;50.280;19.160;2023-04-05T07:39:06;98891.03;;;16.02;41.84
66857;BME280;53766;50.280;19.160;2023-04-05T07:41:34;98889.88;;;16.05;41.74
66857;BME280;53766;50.280;19.160;2023-04-05T07:44:03;98893.34;;;16.06;41.66
66857;BME280;53766;50.280;19.160;2023-04-05T07:46:30;98890.53;;;16.07;41.55
66857;BME280;53766;50.280;19.160;2023-04-05T07:48:58;98887.88;;;16.07;41.55
66857;BME280;53766;50.280;19.160;2023-04-05T07:51:25;98887.88;;;16.07;41.66
66857;BME280;53766;50.280;19.160;2023-04-05T07:53:53;98890.31;;;16.09;41.46
66857;BME280;53766;50.280;19.160;2023-04-05T07:56:21;98883.81;;;16.11;41.57
66857;BME280;53766;50.280;19.160;2023-04-05T07:58:49;98879.34;;;16.12;41.42
66857;BME280;53766;50.280;19.160;2023-04-05T08:01:18;98884.47;;;16.13;41.56
66857;BME280;53766;50.280;19.160;2023-04-05T08:03:46;98887.97;;;16.14;41.39
66857;BME280;53766;50.280;19.160;2023-04-05T08:06:15;98883.47;;;16.14;41.27
66857;BME280;53766;50.280;19.160;2023-04-05T08:08:46;98879.81;;;16.15;41.34
66857;BME280;53766;50.280;19.160;2023-04-05T08:11:13;98871.66;;;16.17;41.42
66857;BME280;53766;50.280;19.160;2023-04-05T08:13:41;98868.84;;;16.18;41.27
66857;BME280;53766;50.280;19.160;2023-04-05T08:16:09;98872.16;;;16.20;41.31
66857;BME280;53766;50.280;19.160;2023-04-05T08:18:37;98872.97;;;16.21;41.43
66857;BME280;53766;50.280;19.160;2023-04-05T08:21:04;98860.66;;;16.20;41.54
66857;BME280;53766;50.280;19.160;2023-04-05T08:23:32;98864.81;;;16.22;41.23
66857;BME280;53766;50.280;19.160;2023-04-05T08:25:59;98861.13;;;16.23;41.21
66857;BME280;53766;50.280;19.160;2023-04-05T08:28:27;98861.13;;;16.23;41.06
66857;BME280;53766;50.280;19.160;2023-04-05T08:30:55;98866.47;;;16.23;40.98
66857;BME280;53766;50.280;19.160;2023-04-05T08:33:24;98863.97;;;16.22;41.06
66857;BME280;53766;50.280;19.160;2023-04-05T08:36:05;98863.97;;;16.22;41.37
66857;BME280;53766;50.280;19.160;2023-04-05T08:38:33;98864.34;;;16.19;41.24
66857;BME280;53766;50.280;19.160;2023-04-05T08:41:16;98859.84;;;16.19;41.25
66857;BME280;53766;50.280;19.160;2023-04-05T08:43:56;98860.66;;;16.20;41.16
66857;BME280;53766;50.280;19.160;2023-04-05T08:46:29;98859.66;;;16.21;41.04
66857;BME280;53766;50.280;19.160;2023-04-05T08:48:57;98860.50;;;16.21;40.93
66857;BME280;53766;50.280;19.160;2023-04-05T08:51:25;98865.00;;;16.21;41.04
66857;BME280;53766;50.280;19.160;2023-04-05T08:53:53;98865.16;;;16.19;41.09
66857;BME280;53766;50.280;19.160;2023-04-05T08:56:26;98868.84;;;16.18;41.13
66857;BME280;53766;50.280;19.160;2023-04-05T08:58:56;98861.84;;;16.17;41.16
66857;BME280;53766;50.280;19.160;2023-04-05T09:01:28;98861.03;;;16.17;40.97
66857;BME280;53766;50.280;19.160;2023-04-05T09:04:04;98856.75;;;16.16;41.21
66857;BME280;53766;50.280;19.160;2023-04-05T09:06:34;98858.22;;;16.18;40.81
66857;BME280;53766;50.280;19.160;2023-04-05T09:09:05;98855.19;;;16.21;41.05
66857;BME280;53766;50.280;19.160;2023-04-05T09:11:34;98854.00;;;16.24;41.01
66857;BME280;53766;50.280;19.160;2023-04-05T09:14:06;98847.31;;;16.28;40.72
66857;BME280;53766;50.280;19.160;2023-04-05T09:16:36;98857.94;;;16.28;40.91
66857;BME280;53766;50.280;19.160;2023-04-05T09:19:04;98859.78;;;16.28;40.83
66857;BME280;53766;50.280;19.160;2023-04-05T09:22:01;98862.44;;;16.28;40.97
66857;BME280;53766;50.280;19.160;2023-04-05T09:24:39;98861.63;;;16.27;40.99
66857;BME280;53766;50.280;19.160;2023-04-05T09:27:18;98855.28;;;16.28;40.95
66857;BME280;53766;50.280;19.160;2023-04-05T09:29:47;98861.63;;;16.27;41.05
66857;BME280;53766;50.280;19.160;2023-04-05T09:32:16;98856.31;;;16.27;41.05
66857;BME280;53766;50.280;19.160;2023-04-05T09:34:47;98862.25;;;16.29;40.85
66857;BME280;53766;50.280;19.160;2023-04-05T09:37:20;98857.59;;;16.31;40.93
66857;BME280;53766;50.280;19.160;2023-04-05T09:39:49;98860.91;;;16.33;40.94
66857;BME280;53766;50.280;19.160;2023-04-05T09:42:19;98855.38;;;16.35;40.94
66857;BME280;53766;50.280;19.160;2023-04-05T09:47:23;98856.03;;;16.37;40.58
66857;BME280;53766;50.280;19.160;2023-04-05T09:49:52;98856.84;;;16.37;40.89
66857;BME280;53766;50.280;19.160;2023-04-05T09:52:21;98845.88;;;16.40;40.69
66857;BME280;53766;50.280;19.160;2023-04-05T09:54:51;98851.53;;;16.37;40.69
66857;BME280;53766;50.280;19.160;2023-04-05T09:57:21;98854.84;;;16.39;40.90
66857;BME280;53766;50.280;19.160;2023-04-05T09:59:49;98860.81;;;16.41;40.64
66857;BME280;53766;50.280;19.160;2023-04-05T10:02:17;98849.19;;;16.42;40.77
66857;BME280;53766;50.280;19.160;2023-04-05T10:04:45;98846.34;;;16.44;40.79
66857;BME280;53766;50.280;19.160;2023-04-05T10:07:16;98840.84;;;16.45;40.73
66857;BME280;53766;50.280;19.160;2023-04-05T10:09:46;98842.28;;;16.48;40.49
66857;BME280;53766;50.280;19.160;2023-04-05T10:12:24;98842.28;;;16.48;40.53
66857;BME280;53766;50.280;19.160;2023-04-05T10:14:55;98841.13;;;16.51;40.61
66857;BME280;53766;50.280;19.160;2023-04-05T10:20:20;98842.59;;;16.53;40.61
66857;BME280;53766;50.280;19.160;2023-04-05T10:25:23;98830.50;;;16.51;40.59
66857;BME280;53766;50.280;19.160;2023-04-05T10:27:54;98835.81;;;16.51;40.71
66857;BME280;53766;50.280;19.160;2023-04-05T10:30:30;98841.13;;;16.51;40.60
66857;BME280;53766;50.280;19.160;2023-04-05T10:33:09;98831.31;;;16.51;40.62
66857;BME280;53766;50.280;19.160;2023-04-05T10:36:08;98829.31;;;16.53;40.60
66857;BME280;53766;50.280;19.160;2023-04-05T10:39:04;98828.09;;;16.56;40.59
66857;BME280;53766;50.280;19.160;2023-04-05T10:41:40;98823.25;;;16.59;40.51
66857;BME280;53766;50.280;19.160;2023-04-05T10:44:10;98829.03;;;16.63;40.52
66857;BME280;53766;50.280;19.160;2023-04-05T10:46:53;98824.53;;;16.63;40.41
66857;BME280;53766;50.280;19.160;2023-04-05T10:49:31;98809.41;;;16.64;40.26
66857;BME280;53766;50.280;19.160;2023-04-05T10:52:01;98815.38;;;16.66;40.34
66857;BME280;53766;50.280;19.160;2023-04-05T10:54:33;98804.91;;;16.64;40.29
66857;BME280;53766;50.280;19.160;2023-04-05T10:57:04;98811.22;;;16.63;40.28
66857;BME280;53766;50.280;19.160;2023-04-05T10:59:41;98813.72;;;16.65;40.22
66857;BME280;53766;50.280;19.160;2023-04-05T11:02:10;98808.56;;;16.63;40.27
66857;BME280;53766;50.280;19.160;2023-04-05T11:04:38;98817.66;;;16.69;40.15
66857;BME280;53766;50.280;19.160;2023-04-05T11:07:18;98811.97;;;16.72;40.15
66857;BME280;53766;50.280;19.160;2023-04-05T11:09:55;98816.47;;;16.72;40.26
66857;BME280;53766;50.280;19.160;2023-04-05T11:23:19;98814.00;;;16.70;40.15
66857;BME280;53766;50.280;19.160;2023-04-05T11:26:04;98817.28;;;16.72;39.92
66857;BME280;53766;50.280;19.160;2023-04-05T11:28:36;98808.31;;;16.73;40.12
66857;BME280;53766;50.280;19.160;2023-04-05T11:31:16;98808.94;;;16.75;39.88
66857;BME280;53766;50.280;19.160;2023-04-05T11:36:36;98805.66;;;16.73;40.00
66857;BME280;53766;50.280;19.160;2023-04-05T11:44:22;98797.59;;;16.81;39.91
66857;BME280;53766;50.280;19.160;2023-04-05T11:46:53;98798.59;;;16.80;39.99
66857;BME280;53766;50.280;19.160;2023-04-05T11:49:23;98792.06;;;16.83;39.80
66857;BME280;53766;50.280;19.160;2023-04-05T11:51:52;98803.56;;;16.83;39.81
66857;BME280;53766;50.280;19.160;2023-04-05T11:54:32;98796.59;;;16.82;39.92
66857;BME280;53766;50.280;19.160;2023-04-05T11:57:00;98801.25;;;16.80;40.04
66857;BME280;53766;50.280;19.160;2023-04-05T11:59:32;98800.44;;;16.80;39.90
66857;BME280;53766;50.280;19.160;2023-04-05T12:02:02;98800.28;;;16.81;40.09
66857;BME280;53766;50.280;19.160;2023-04-05T12:04:35;98803.56;;;16.83;39.81
66857;BME280;53766;50.280;19.160;2023-04-05T12:07:14;98796.94;;;16.79;39.86
66857;BME280;53766;50.280;19.160;2023-04-05T12:10:06;98805.91;;;16.78;40.09
66857;BME280;53766;50.280;19.160;2023-04-05T12:12:41;98797.59;;;16.81;39.92
66857;BME280;53766;50.280;19.160;2023-04-05T12:15:11;98790.28;;;16.83;40.00
66857;BME280;53766;50.280;19.160;2023-04-05T12:20:21;98787.22;;;16.86;39.76
66857;BME280;53766;50.280;19.160;2023-04-05T12:22:55;98777.59;;;16.85;39.96
66857;BME280;53766;50.280;19.160;2023-04-05T12:25:23;98789.63;;;16.81;40.02
66857;BME280;53766;50.280;19.160;2023-04-05T12:27:51;98794.09;;;16.81;40.09
66857;BME280;53766;50.280;19.160;2023-04-05T12:30:21;98789.13;;;16.78;39.99
66857;BME280;53766;50.280;19.160;2023-04-05T12:32:51;98788.31;;;16.77;39.98
66857;BME280;53766;50.280;19.160;2023-04-05T12:37:49;98780.34;;;16.77;40.11
66857;BME280;53766;50.280;19.160;2023-04-05T12:40:21;98789.13;;;16.78;40.02
66857;BME280;53766;50.280;19.160;2023-04-05T12:42:50;98780.97;;;16.79;39.97
66857;BME280;53766;50.280;19.160;2023-04-05T12:45:17;98775.31;;;16.82;39.73
66857;BME280;53766;50.280;19.160;2023-04-05T12:47:56;98775.94;;;16.84;39.91
66857;BME280;53766;50.280;19.160;2023-04-05T12:50:29;98775.59;;;16.88;39.69
66857;BME280;53766;50.280;19.160;2023-04-05T12:52:58;98782.38;;;16.90;39.73
66857;BME280;53766;50.280;19.160;2023-04-05T12:55:29;98773.28;;;16.84;39.92
66857;BME280;53766;50.280;19.160;2023-04-05T12:58:00;98771.00;;;16.81;39.99
66857;BME280;53766;50.280;19.160;2023-04-05T13:00:28;98780.97;;;16.79;39.97
66857;BME280;53766;50.280;19.160;2023-04-05T13:02:58;98780.50;;;16.76;40.01
66857;BME280;53766;50.280;19.160;2023-04-05T13:05:27;98779.88;;;16.74;40.24
66857;BME280;53766;50.280;19.160;2023-04-05T13:07:56;98776.38;;;16.73;40.09
66857;BME280;53766;50.280;19.160;2023-04-05T13:10:24;98778.03;;;16.74;40.02
66857;BME280;53766;50.280;19.160;2023-04-05T13:12:52;98780.97;;;16.79;39.75
66857;BME280;53766;50.280;19.160;2023-04-05T13:15:19;98773.47;;;16.83;39.92
66857;BME280;53766;50.280;19.160;2023-04-05T13:17:47;98776.75;;;16.85;39.89
66857;BME280;53766;50.280;19.160;2023-04-05T13:20:20;98774.94;;;16.85;39.84
66857;BME280;53766;50.280;19.160;2023-04-05T13:22:47;98772.00;;;16.80;39.97
66857;BME280;53766;50.280;19.160;2023-04-05T13:25:15;98779.97;;;16.80;40.00
66857;BME280;53766;50.280;19.160;2023-04-05T13:27:42;98773.97;;;16.78;39.95
66857;BME280;53766;50.280;19.160;2023-04-05T13:30:10;98776.66;;;16.78;39.97
66857;BME280;53766;50.280;19.160;2023-04-05T13:32:38;98773.97;;;16.78;40.08
66857;BME280;53766;50.280;19.160;2023-04-05T13:35:08;98774.84;;;16.79;39.83
66857;BME280;53766;50.280;19.160;2023-04-05T13:37:36;98773.97;;;16.78;40.14
66857;BME280;53766;50.280;19.160;2023-04-05T13:40:04;98770.63;;;16.84;39.85